createdAt,value
2018-09-29T14:55:07.002Z,17.30
2018-09-29T14:59:09.831Z,16.70
2018-09-29T15:03:12.709Z,16.90
2018-09-29T15:07:15.343Z,17.20
2018-09-29T15:11:18.161Z,17.10
2018-09-29T15:15:20.959Z,17.10
2018-09-29T15:19:23.694Z,16.10
2018-09-29T15:23:26.379Z,16.20
2018-09-29T15:27:29.171Z,16.00
2018-09-29T15:31:32.060Z,15.90
2018-09-29T15:35:34.785Z,16.10
2018-09-29T15:39:37.551Z,16.00
2018-09-29T15:43:40.355Z,15.90
2018-09-29T15:47:43.181Z,15.70
2018-09-29T15:51:46.019Z,15.40
2018-09-29T15:55:48.807Z,15.30
2018-09-29T15:59:51.580Z,15.30
2018-09-29T16:03:54.321Z,15.20
2018-09-29T16:07:57.001Z,15.10
2018-09-29T16:11:59.745Z,15.20
2018-09-29T16:16:02.449Z,15.10
2018-09-29T16:20:05.271Z,15.00
2018-09-29T16:24:07.991Z,14.80
2018-09-29T16:28:10.759Z,14.70
2018-09-29T16:32:13.513Z,14.50
2018-09-29T16:36:16.272Z,14.40
2018-09-29T16:40:19.090Z,14.40
2018-09-29T16:44:22.026Z,14.20
2018-09-29T16:48:24.776Z,14.00
2018-09-29T16:52:27.564Z,13.90
2018-09-29T16:56:30.423Z,13.70
2018-09-29T17:00:33.170Z,13.40
2018-09-29T17:04:36.070Z,13.30
2018-09-29T17:08:38.669Z,13.20
2018-09-29T17:12:41.446Z,13.00
2018-09-29T17:16:44.165Z,12.70
2018-09-29T17:20:46.989Z,12.60
2018-09-29T17:24:49.744Z,12.50
2018-09-29T17:28:52.527Z,12.40
2018-09-29T17:32:55.310Z,12.10
2018-09-29T17:36:58.134Z,11.90
2018-09-29T17:41:00.798Z,11.90
2018-09-29T17:45:03.636Z,11.80
2018-09-29T17:49:06.432Z,11.80
2018-09-29T17:53:09.142Z,11.70
2018-09-29T17:57:11.992Z,11.60
2018-09-29T18:01:14.812Z,11.30
2018-09-29T18:05:17.599Z,11.20
2018-09-29T18:09:20.337Z,11.20
2018-09-29T18:13:23.069Z,11.10
2018-09-29T18:17:25.810Z,10.90
2018-09-29T18:21:28.701Z,10.80
2018-09-29T18:25:31.484Z,10.70
2018-09-29T18:29:34.285Z,10.60
2018-09-29T18:33:37.077Z,10.60
2018-09-29T18:37:39.861Z,10.50
2018-09-29T18:41:42.618Z,10.30
2018-09-29T18:45:45.401Z,10.30
2018-09-29T18:49:48.182Z,10.20
2018-09-29T18:53:50.954Z,10.20
2018-09-29T18:57:54.025Z,10.10
2018-09-29T19:01:57.001Z,10.10
2018-09-29T19:05:59.734Z,10.00
2018-09-29T19:10:02.481Z,9.90
2018-09-29T19:14:05.217Z,9.80
2018-09-29T19:18:08.079Z,9.70
2018-09-29T19:22:10.885Z,9.70
2018-09-29T19:26:13.714Z,9.60
2018-09-29T19:30:16.514Z,9.50
2018-09-29T19:34:19.353Z,9.50
2018-09-29T19:38:22.229Z,9.50
2018-09-29T19:42:25.025Z,9.50
2018-09-29T19:46:27.814Z,9.30
2018-09-29T19:50:30.721Z,9.20
2018-09-29T19:54:33.566Z,9.20
2018-09-29T19:58:36.251Z,9.10
2018-09-29T20:02:39.008Z,9.00
2018-09-29T20:06:41.743Z,9.00
2018-09-29T20:10:44.576Z,8.90
2018-09-29T20:14:47.523Z,8.90
2018-09-29T20:18:50.283Z,8.80
2018-09-29T20:22:53.229Z,8.80
2018-09-29T20:26:55.959Z,8.70
2018-09-29T20:30:58.701Z,8.60
2018-09-29T20:35:01.458Z,8.50
2018-09-29T20:39:07.067Z,8.50
2018-09-29T20:43:09.910Z,8.40
2018-09-29T20:47:12.635Z,8.40
2018-09-29T20:51:15.365Z,8.40
2018-09-29T20:55:18.151Z,8.40
2018-09-29T20:59:20.902Z,8.40
2018-09-29T21:03:23.775Z,8.20
2018-09-29T21:07:26.534Z,8.20
2018-09-29T21:11:29.278Z,8.20
2018-09-29T21:15:32.362Z,8.10
2018-09-29T21:19:35.179Z,8.10
2018-09-29T21:23:37.941Z,7.90
2018-09-29T21:27:40.729Z,7.90
2018-09-29T21:31:43.575Z,7.90
2018-09-29T21:35:46.414Z,7.90
2018-09-29T21:39:49.189Z,7.80
2018-09-29T21:43:51.926Z,7.90
2018-09-29T21:47:54.635Z,7.80
2018-09-29T21:51:57.434Z,7.80
2018-09-29T21:56:01.149Z,7.80
2018-09-29T22:00:04.043Z,7.70
2018-09-29T22:04:06.832Z,7.60
2018-09-29T22:08:09.601Z,7.60
2018-09-29T22:12:12.355Z,7.60
2018-09-29T22:16:15.045Z,7.50
2018-09-29T22:20:17.774Z,7.50
2018-09-29T22:24:20.656Z,7.40
2018-09-29T22:28:23.401Z,7.30
2018-09-29T22:32:26.118Z,7.30
2018-09-29T22:36:28.949Z,7.20
2018-09-29T22:40:31.708Z,7.20
2018-09-29T22:44:34.732Z,7.10
2018-09-29T22:48:37.536Z,7.20
2018-09-29T22:52:40.253Z,7.20
2018-09-29T22:56:43.297Z,7.10
2018-09-29T23:00:46.117Z,7.00
2018-09-29T23:04:48.879Z,6.90
2018-09-29T23:08:51.793Z,6.90
2018-09-29T23:12:54.524Z,6.80
2018-09-29T23:16:57.248Z,6.80
2018-09-29T23:20:59.929Z,6.70
2018-09-29T23:25:02.723Z,6.80
2018-09-29T23:29:05.531Z,6.70
2018-09-29T23:33:08.273Z,6.70
2018-09-29T23:37:11.027Z,6.60
2018-09-29T23:41:13.709Z,6.60
2018-09-29T23:45:16.484Z,6.50
2018-09-29T23:49:19.230Z,6.50
2018-09-29T23:53:21.951Z,6.40
2018-09-29T23:57:24.731Z,6.40
